createdAt,value
2018-02-24T00:00:10.872Z,61.63
2018-02-24T00:02:38.402Z,61.63
2018-02-24T00:05:06.054Z,61.50
2018-02-24T00:07:34.514Z,61.44
2018-02-24T00:10:02.104Z,61.41
2018-02-24T00:12:29.688Z,61.42
2018-02-24T00:14:57.340Z,61.33
2018-02-24T00:17:24.883Z,61.29
2018-02-24T00:19:52.422Z,61.48
2018-02-24T00:22:19.993Z,61.38
2018-02-24T00:24:47.563Z,61.26
2018-02-24T00:27:15.138Z,61.13
2018-02-24T00:29:42.788Z,61.08
2018-02-24T00:32:10.380Z,61.08
2018-02-24T00:34:37.983Z,61.00
2018-02-24T00:37:05.532Z,60.91
2018-02-24T00:39:33.102Z,60.85
2018-02-24T00:42:00.652Z,60.70
2018-02-24T00:44:28.257Z,60.65
2018-02-24T00:46:55.790Z,60.66
2018-02-24T00:49:23.354Z,60.72
2018-02-24T00:51:51.016Z,60.66
2018-02-24T00:54:18.644Z,60.67
2018-02-24T00:56:46.200Z,60.90
2018-02-24T00:59:13.868Z,61.14
2018-02-24T01:01:41.499Z,61.35
2018-02-24T01:04:09.174Z,62.02
2018-02-24T01:06:36.739Z,62.25
2018-02-24T01:09:04.312Z,62.23
2018-02-24T01:11:31.911Z,62.16
2018-02-24T01:13:59.442Z,62.13
2018-02-24T01:16:27.028Z,61.93
2018-02-24T01:18:54.615Z,61.72
2018-02-24T01:21:22.263Z,61.62
2018-02-24T01:23:49.859Z,61.46
2018-02-24T01:26:17.447Z,61.45
2018-02-24T01:28:45.028Z,61.43
2018-02-24T01:31:12.615Z,61.60
2018-02-24T01:33:40.151Z,61.57
2018-02-24T01:36:07.726Z,61.46
2018-02-24T01:38:35.265Z,61.39
2018-02-24T01:41:02.908Z,61.26
2018-02-24T01:43:30.448Z,61.13
2018-02-24T01:45:59.036Z,61.13
2018-02-24T01:48:26.618Z,61.11
2018-02-24T01:50:55.140Z,61.11
2018-02-24T01:53:22.670Z,60.90
2018-02-24T01:55:50.271Z,61.03
2018-02-24T01:58:17.819Z,61.13
2018-02-24T02:00:45.484Z,61.20
2018-02-24T02:03:13.061Z,61.34
2018-02-24T02:05:40.660Z,61.57
2018-02-24T02:08:08.197Z,61.97
2018-02-24T02:10:36.731Z,62.06
2018-02-24T02:13:04.280Z,62.00
2018-02-24T02:15:31.825Z,61.83
2018-02-24T02:18:00.394Z,61.72
2018-02-24T02:20:27.972Z,61.63
2018-02-24T02:22:55.615Z,61.62
2018-02-24T02:25:23.166Z,61.73
2018-02-24T02:27:50.738Z,61.70
2018-02-24T02:30:18.345Z,61.63
2018-02-24T02:32:45.887Z,61.45
2018-02-24T02:35:13.426Z,61.37
2018-02-24T02:37:40.999Z,61.34
2018-02-24T02:40:08.543Z,61.37
2018-02-24T02:42:36.122Z,61.38
2018-02-24T02:45:03.672Z,61.33
2018-02-24T02:47:31.272Z,61.35
2018-02-24T02:49:58.863Z,61.45
2018-02-24T02:52:26.408Z,61.50
2018-02-24T02:54:53.986Z,61.86
2018-02-24T02:57:21.578Z,62.00
2018-02-24T02:59:49.131Z,61.93
2018-02-24T03:02:16.737Z,62.02
2018-02-24T03:04:44.283Z,61.98
2018-02-24T03:07:11.952Z,61.97
2018-02-24T03:09:39.486Z,62.14
2018-02-24T03:12:07.084Z,63.24
2018-02-24T03:14:34.696Z,63.41
2018-02-24T03:17:02.274Z,63.39
2018-02-24T03:19:29.851Z,63.39
2018-02-24T03:21:57.448Z,63.37
2018-02-24T03:24:25.095Z,63.26
2018-02-24T03:26:52.693Z,63.22
2018-02-24T03:29:20.275Z,62.94
2018-02-24T03:31:47.820Z,62.91
2018-02-24T03:34:15.362Z,64.23
2018-02-24T03:36:42.932Z,65.55
2018-02-24T03:39:10.473Z,65.52
2018-02-24T03:41:38.156Z,65.74
2018-02-24T03:44:05.693Z,66.15
2018-02-24T03:46:33.247Z,66.00
2018-02-24T03:49:00.887Z,66.55
2018-02-24T03:51:28.439Z,66.28
2018-02-24T03:53:56.040Z,66.01
2018-02-24T03:56:24.505Z,66.14
2018-02-24T03:58:52.088Z,66.21
2018-02-24T04:01:19.700Z,66.34
2018-02-24T04:03:47.288Z,65.83
2018-02-24T04:06:14.852Z,65.47
2018-02-24T04:08:42.391Z,65.20
2018-02-24T04:11:09.975Z,64.95
2018-02-24T04:13:37.551Z,64.79
2018-02-24T04:16:05.132Z,64.52
2018-02-24T04:18:32.679Z,64.87
2018-02-24T04:21:00.258Z,64.70
2018-02-24T04:23:28.753Z,64.36
2018-02-24T04:25:56.287Z,64.27
2018-02-24T04:28:23.864Z,64.34
2018-02-24T04:30:52.374Z,64.53
2018-02-24T04:33:19.910Z,64.40
2018-02-24T04:35:47.451Z,64.37
2018-02-24T04:38:15.035Z,64.32
2018-02-24T04:40:42.591Z,64.51
2018-02-24T04:43:10.243Z,65.65
2018-02-24T04:45:37.814Z,65.94
2018-02-24T04:48:05.359Z,65.46
2018-02-24T04:50:32.929Z,65.22
2018-02-24T04:53:00.493Z,65.15
2018-02-24T04:55:28.035Z,64.97
2018-02-24T04:57:55.622Z,64.89
2018-02-24T05:00:23.159Z,64.83
2018-02-24T05:02:50.689Z,64.58
2018-02-24T05:05:18.332Z,64.32
2018-02-24T05:07:45.868Z,64.24
2018-02-24T05:10:13.459Z,64.29
2018-02-24T05:12:41.044Z,64.22
2018-02-24T05:15:08.627Z,64.62
2018-02-24T05:17:36.159Z,64.69
2018-02-24T05:20:03.804Z,65.22
2018-02-24T05:22:31.448Z,65.04
2018-02-24T05:24:58.978Z,64.97
2018-02-24T05:27:26.561Z,64.89
2018-02-24T05:29:54.090Z,64.86
2018-02-24T05:32:21.635Z,64.65
2018-02-24T05:34:49.241Z,64.48
2018-02-24T05:37:16.784Z,64.35
2018-02-24T05:39:44.310Z,64.30
2018-02-24T05:42:11.891Z,64.65
2018-02-24T05:44:39.432Z,64.57
2018-02-24T05:47:07.005Z,64.33
2018-02-24T05:49:34.636Z,64.17
2018-02-24T05:52:02.180Z,63.98
2018-02-24T05:54:29.759Z,63.86
2018-02-24T05:56:57.337Z,63.75
2018-02-24T05:59:24.874Z,63.56
2018-02-24T06:01:52.484Z,63.38
2018-02-24T06:04:20.046Z,63.27
2018-02-24T06:06:47.592Z,63.31
2018-02-24T06:09:15.185Z,63.36
2018-02-24T06:11:42.717Z,63.32
2018-02-24T06:14:10.251Z,63.23
2018-02-24T06:16:38.679Z,63.17
2018-02-24T06:19:06.245Z,62.91
2018-02-24T06:21:33.872Z,62.83
2018-02-24T06:24:01.444Z,63.31
2018-02-24T06:26:29.121Z,63.44
2018-02-24T06:28:56.655Z,63.27
2018-02-24T06:31:24.200Z,63.09
2018-02-24T06:33:51.779Z,62.89
2018-02-24T06:36:19.336Z,62.74
2018-02-24T06:38:46.935Z,62.78
2018-02-24T06:41:14.557Z,62.82
2018-02-24T06:43:42.134Z,62.79
2018-02-24T06:46:09.667Z,62.67
2018-02-24T06:48:37.219Z,62.70
2018-02-24T06:51:04.794Z,62.86
2018-02-24T06:53:32.331Z,62.74
2018-02-24T06:56:00.701Z,62.63
2018-02-24T06:58:28.243Z,62.41
2018-02-24T07:00:55.787Z,62.33
2018-02-24T07:03:23.362Z,62.24
2018-02-24T07:05:50.912Z,62.17
2018-02-24T07:08:18.554Z,62.21
2018-02-24T07:10:46.152Z,62.41
2018-02-24T07:13:13.750Z,62.83
2018-02-24T07:15:41.345Z,62.95
2018-02-24T07:18:08.924Z,62.67
2018-02-24T07:20:37.319Z,62.64
2018-02-24T07:23:04.864Z,62.69
2018-02-24T07:25:32.443Z,62.56
2018-02-24T07:28:00.105Z,62.45
2018-02-24T07:30:27.673Z,62.58
2018-02-24T07:32:55.351Z,62.68
2018-02-24T07:35:23.137Z,62.60
2018-02-24T07:37:50.681Z,62.50
2018-02-24T07:40:18.272Z,62.32
2018-02-24T07:42:45.868Z,62.20
2018-02-24T07:45:13.428Z,62.11
2018-02-24T07:47:40.986Z,61.95
2018-02-24T07:50:08.562Z,61.78
2018-02-24T07:52:36.112Z,61.73
2018-02-24T07:55:03.688Z,61.73
2018-02-24T07:57:31.235Z,61.78
2018-02-24T07:59:58.819Z,61.84
2018-02-24T08:02:26.467Z,62.18
2018-02-24T08:04:54.087Z,62.18
2018-02-24T08:07:21.735Z,62.10
2018-02-24T08:09:49.272Z,62.06
2018-02-24T08:12:16.842Z,62.13
2018-02-24T08:14:44.415Z,62.41
2018-02-24T08:17:11.963Z,62.35
2018-02-24T08:19:39.547Z,62.38
2018-02-24T08:22:07.148Z,62.53
2018-02-24T08:24:34.722Z,62.59
2018-02-24T08:27:02.260Z,62.48
2018-02-24T08:29:29.916Z,62.35
2018-02-24T08:31:57.454Z,62.26
2018-02-24T08:34:25.059Z,62.09
2018-02-24T08:36:52.648Z,62.06
2018-02-24T08:39:20.215Z,61.92
2018-02-24T08:41:47.804Z,61.76
2018-02-24T08:44:15.392Z,61.73
2018-02-24T08:46:42.934Z,61.64
2018-02-24T08:49:10.480Z,61.64
2018-02-24T08:51:38.062Z,61.74
2018-02-24T08:54:05.653Z,61.87
2018-02-24T08:56:33.191Z,62.02
2018-02-24T08:59:00.782Z,62.05
2018-02-24T09:01:28.436Z,61.94
2018-02-24T09:03:55.980Z,61.81
2018-02-24T09:06:23.575Z,61.80
2018-02-24T09:08:51.108Z,61.70
2018-02-24T09:11:18.738Z,61.65
2018-02-24T09:13:46.284Z,61.67
2018-02-24T09:16:13.880Z,61.50
2018-02-24T09:18:41.429Z,61.45
2018-02-24T09:21:09.116Z,61.32
2018-02-24T09:23:36.655Z,61.34
2018-02-24T09:26:04.309Z,61.10
2018-02-24T09:28:31.862Z,61.38
2018-02-24T09:30:59.445Z,61.55
2018-02-24T09:33:27.059Z,61.59
2018-02-24T09:35:54.658Z,61.81
2018-02-24T09:38:23.173Z,61.97
2018-02-24T09:40:51.615Z,61.87
2018-02-24T09:43:19.208Z,61.91
2018-02-24T09:45:46.751Z,61.93
2018-02-24T09:48:14.353Z,61.73
2018-02-24T09:50:41.937Z,61.54
2018-02-24T09:53:09.486Z,61.34
2018-02-24T09:55:37.032Z,61.23
2018-02-24T09:58:04.628Z,61.10
2018-02-24T10:00:32.216Z,61.11
2018-02-24T10:02:59.758Z,61.07
2018-02-24T10:05:27.327Z,61.01
2018-02-24T10:07:55.597Z,61.02
2018-02-24T10:10:23.184Z,60.96
2018-02-24T10:12:50.832Z,60.89
2018-02-24T10:15:19.311Z,60.62
2018-02-24T10:17:46.882Z,60.63
2018-02-24T10:20:14.426Z,60.55
2018-02-24T10:22:42.682Z,60.57
2018-02-24T10:25:10.323Z,60.37
2018-02-24T10:27:37.931Z,60.55
2018-02-24T10:30:05.538Z,60.60
2018-02-24T10:32:33.078Z,60.69
2018-02-24T10:35:00.676Z,60.70
2018-02-24T10:37:28.284Z,60.53
2018-02-24T10:39:55.814Z,60.14
2018-02-24T10:42:23.398Z,60.44
2018-02-24T10:44:50.950Z,60.55
2018-02-24T10:47:19.299Z,60.87
2018-02-24T10:49:46.840Z,61.75
2018-02-24T10:52:14.429Z,61.72
2018-02-24T10:54:42.864Z,62.05
2018-02-24T10:57:10.575Z,62.38
2018-02-24T10:59:38.113Z,62.72
2018-02-24T11:02:05.695Z,63.02
2018-02-24T11:04:33.230Z,63.41
2018-02-24T11:07:00.816Z,63.95
2018-02-24T11:09:28.359Z,63.60
2018-02-24T11:11:56.044Z,63.38
2018-02-24T11:14:24.427Z,62.98
2018-02-24T11:16:51.962Z,62.65
2018-02-24T11:19:19.557Z,62.52
2018-02-24T11:21:47.101Z,62.33
2018-02-24T11:24:14.709Z,62.02
2018-02-24T11:26:43.060Z,61.76
2018-02-24T11:29:12.090Z,61.85
2018-02-24T11:31:39.675Z,61.69
2018-02-24T11:34:08.202Z,61.65
2018-02-24T11:36:35.790Z,61.37
2018-02-24T11:39:03.624Z,61.39
2018-02-24T11:41:31.195Z,61.17
2018-02-24T11:43:58.817Z,60.89
2018-02-24T11:46:26.395Z,60.70
2018-02-24T11:48:54.041Z,60.93
2018-02-24T11:51:21.628Z,60.83
2018-02-24T11:53:49.216Z,60.61
2018-02-24T11:56:16.755Z,60.73
2018-02-24T11:58:45.090Z,60.61
2018-02-24T12:01:12.671Z,60.36
2018-02-24T12:03:40.291Z,60.53
2018-02-24T12:06:07.843Z,60.57
2018-02-24T12:08:35.436Z,60.19
2018-02-24T12:11:02.983Z,59.83
2018-02-24T12:13:30.572Z,59.89
2018-02-24T12:15:58.111Z,59.92
2018-02-24T12:18:25.692Z,60.09
2018-02-24T12:20:53.225Z,59.19
2018-02-24T12:23:20.816Z,61.41
2018-02-24T12:25:48.411Z,62.15
2018-02-24T12:28:15.952Z,62.06
2018-02-24T12:30:43.545Z,62.12
2018-02-24T12:33:12.124Z,62.08
2018-02-24T12:35:39.693Z,61.75
2018-02-24T12:38:07.307Z,62.96
2018-02-24T12:40:34.910Z,64.38
2018-02-24T12:43:02.482Z,64.70
2018-02-24T12:45:30.127Z,65.85
2018-02-24T12:47:57.673Z,66.81
2018-02-24T12:50:25.320Z,66.68
2018-02-24T12:52:53.041Z,65.90
2018-02-24T12:55:21.764Z,64.97
2018-02-24T12:57:49.427Z,64.91
2018-02-24T13:00:16.998Z,64.74
2018-02-24T13:02:44.613Z,64.77
2018-02-24T13:05:12.163Z,64.25
2018-02-24T13:07:40.274Z,65.25
2018-02-24T13:10:07.818Z,65.96
2018-02-24T13:12:35.393Z,66.99
2018-02-24T13:15:03.796Z,67.83
2018-02-24T13:17:31.370Z,67.83
2018-02-24T13:19:58.913Z,68.65
2018-02-24T13:22:26.482Z,68.83
2018-02-24T13:24:54.994Z,68.72
2018-02-24T13:27:22.652Z,68.86
2018-02-24T13:29:50.195Z,68.81
2018-02-24T13:32:18.505Z,68.00
2018-02-24T13:34:46.122Z,67.90
2018-02-24T13:37:13.687Z,68.41
2018-02-24T13:39:41.236Z,68.89
2018-02-24T13:42:08.889Z,68.96
2018-02-24T13:44:36.565Z,69.21
2018-02-24T13:47:04.196Z,68.77
2018-02-24T13:49:31.725Z,68.82
2018-02-24T13:51:59.278Z,69.05
2018-02-24T13:54:26.872Z,69.17
2018-02-24T13:56:54.405Z,68.59
2018-02-24T13:59:21.948Z,69.08
2018-02-24T14:01:49.527Z,69.25
2018-02-24T14:04:17.140Z,68.90
2018-02-24T14:06:44.699Z,69.35
2018-02-24T14:09:12.234Z,69.87
2018-02-24T14:11:39.799Z,69.79
2018-02-24T14:14:07.357Z,69.49
2018-02-24T14:16:34.948Z,69.13
2018-02-24T14:19:03.283Z,69.63
2018-02-24T14:21:30.866Z,69.53
2018-02-24T14:23:58.674Z,70.42
2018-02-24T14:26:27.154Z,70.44
2018-02-24T14:28:55.498Z,70.29
2018-02-24T14:31:23.927Z,69.94
2018-02-24T14:33:52.908Z,69.76
2018-02-24T14:36:21.464Z,69.51
2018-02-24T14:38:49.093Z,69.50
2018-02-24T14:41:16.770Z,69.17
2018-02-24T14:43:44.367Z,69.51
2018-02-24T14:46:11.951Z,69.59
2018-02-24T14:48:39.489Z,70.37
2018-02-24T14:51:07.156Z,70.64
2018-02-24T14:53:34.700Z,70.51
2018-02-24T14:56:02.244Z,70.34
2018-02-24T14:58:29.830Z,70.51
2018-02-24T15:00:57.476Z,70.65
2018-02-24T15:03:25.060Z,70.22
2018-02-24T15:05:52.775Z,70.35
2018-02-24T15:08:21.108Z,70.82
2018-02-24T15:10:52.643Z,71.00
2018-02-24T15:13:20.243Z,70.94
2018-02-24T15:15:47.779Z,71.23
2018-02-24T15:18:16.874Z,71.54
2018-02-24T15:20:44.435Z,71.75
2018-02-24T15:23:12.097Z,71.59
2018-02-24T15:25:41.203Z,71.44
2018-02-24T15:28:09.558Z,71.14
2018-02-24T15:30:37.237Z,71.03
2018-02-24T15:33:04.889Z,70.91
2018-02-24T15:35:34.305Z,71.00
2018-02-24T15:38:02.766Z,70.73
2018-02-24T15:40:30.364Z,69.92
2018-02-24T15:42:57.940Z,68.89
2018-02-24T15:45:25.592Z,68.24
2018-02-24T15:47:53.352Z,68.46
2018-02-24T15:50:21.168Z,68.88
2018-02-24T15:52:48.855Z,69.37
2018-02-24T15:55:16.511Z,68.91
2018-02-24T15:57:46.081Z,69.37
2018-02-24T16:00:14.244Z,69.83
2018-02-24T16:02:41.839Z,69.66
2018-02-24T16:05:09.415Z,69.50
2018-02-24T16:07:37.084Z,68.45
2018-02-24T16:10:04.676Z,68.45
2018-02-24T16:12:32.489Z,68.39
2018-02-24T16:15:00.102Z,69.12
2018-02-24T16:17:27.813Z,69.60
2018-02-24T16:19:56.188Z,69.32
2018-02-24T16:22:23.808Z,68.69
2018-02-24T16:24:51.406Z,68.19
2018-02-24T16:27:18.952Z,68.49
2018-02-24T16:29:47.531Z,68.73
2018-02-24T16:32:15.166Z,68.73
2018-02-24T16:34:42.742Z,68.08
2018-02-24T16:37:10.336Z,68.34
2018-02-24T16:39:37.967Z,69.26
2018-02-24T16:42:05.516Z,69.56
2018-02-24T16:44:33.104Z,69.35
2018-02-24T16:47:00.650Z,69.01
2018-02-24T16:49:29.385Z,68.43
2018-02-24T16:51:57.008Z,68.60
2018-02-24T16:54:24.567Z,68.29
2018-02-24T16:56:52.160Z,68.65
2018-02-24T16:59:19.806Z,68.45
2018-02-24T17:01:48.390Z,67.90
2018-02-24T17:04:15.926Z,67.48
2018-02-24T17:06:44.390Z,67.51
2018-02-24T17:09:12.111Z,67.62
2018-02-24T17:11:40.700Z,66.92
2018-02-24T17:14:08.488Z,66.49
2018-02-24T17:16:36.207Z,66.45
2018-02-24T17:19:03.799Z,66.28
2018-02-24T17:21:31.382Z,65.75
2018-02-24T17:23:59.932Z,65.32
2018-02-24T17:26:28.303Z,65.41
2018-02-24T17:28:57.029Z,65.28
2018-02-24T17:31:24.635Z,65.51
2018-02-24T17:33:53.114Z,65.41
2018-02-24T17:36:20.764Z,65.53
2018-02-24T17:38:48.403Z,65.53
2018-02-24T17:41:17.795Z,65.82
2018-02-24T17:43:45.980Z,66.05
2018-02-24T17:46:13.570Z,66.29
2018-02-24T17:48:41.316Z,66.03
2018-02-24T17:51:08.894Z,66.09
2018-02-24T17:53:36.677Z,65.91
2018-02-24T17:56:04.228Z,66.17
2018-02-24T17:58:31.822Z,66.41
2018-02-24T18:00:59.380Z,66.64
2018-02-24T18:03:26.999Z,66.97
2018-02-24T18:05:54.652Z,67.21
2018-02-24T18:08:22.216Z,67.22
2018-02-24T18:10:50.497Z,67.34
2018-02-24T18:13:18.490Z,66.77
2018-02-24T18:15:46.254Z,66.23
2018-02-24T18:18:14.424Z,65.91
2018-02-24T18:20:42.115Z,65.50
2018-02-24T18:23:09.792Z,65.03
2018-02-24T18:25:37.960Z,64.77
2018-02-24T18:28:05.612Z,64.55
2018-02-24T18:30:34.108Z,64.13
2018-02-24T18:33:01.706Z,63.97
2018-02-24T18:35:29.294Z,63.74
2018-02-24T18:37:57.260Z,63.48
2018-02-24T18:40:24.818Z,63.29
2018-02-24T18:42:52.453Z,63.01
2018-02-24T18:45:20.061Z,63.13
2018-02-24T18:47:47.903Z,63.14
2018-02-24T18:50:16.525Z,62.68
2018-02-24T18:52:44.223Z,63.07
2018-02-24T18:55:11.845Z,63.10
2018-02-24T18:57:40.391Z,63.21
2018-02-24T19:00:08.011Z,63.35
2018-02-24T19:02:37.021Z,63.55
2018-02-24T19:05:04.581Z,63.48
2018-02-24T19:07:32.146Z,63.40
2018-02-24T19:09:59.722Z,63.21
2018-02-24T19:12:27.268Z,63.03
2018-02-24T19:14:54.872Z,62.85
2018-02-24T19:17:22.445Z,62.73
2018-02-24T19:19:50.035Z,62.49
2018-02-24T19:22:17.638Z,62.46
2018-02-24T19:24:45.312Z,62.48
2018-02-24T19:27:12.978Z,62.32
2018-02-24T19:29:40.749Z,62.40
2018-02-24T19:32:08.288Z,62.66
2018-02-24T19:34:35.899Z,62.81
2018-02-24T19:37:03.532Z,63.01
2018-02-24T19:39:31.375Z,63.06
2018-02-24T19:41:59.057Z,63.68
2018-02-24T19:44:26.758Z,63.72
2018-02-24T19:46:54.319Z,63.51
2018-02-24T19:49:21.866Z,63.20
2018-02-24T19:51:51.915Z,62.99
2018-02-24T19:54:19.513Z,62.81
2018-02-24T19:56:48.048Z,63.22
2018-02-24T19:59:15.755Z,63.24
2018-02-24T20:01:43.286Z,63.09
2018-02-24T20:04:11.063Z,62.97
2018-02-24T20:06:38.598Z,62.99
2018-02-24T20:09:06.257Z,62.96
2018-02-24T20:11:33.910Z,62.86
2018-02-24T20:14:01.589Z,62.97
2018-02-24T20:16:29.304Z,63.09
2018-02-24T20:18:57.107Z,63.27
2018-02-24T20:21:24.768Z,63.20
2018-02-24T20:23:52.380Z,63.44
2018-02-24T20:26:19.924Z,64.29
2018-02-24T20:28:47.503Z,65.42
2018-02-24T20:31:15.211Z,65.29
2018-02-24T20:33:42.819Z,65.43
2018-02-24T20:36:10.420Z,65.59
2018-02-24T20:38:38.134Z,65.48
2018-02-24T20:41:05.791Z,65.92
2018-02-24T20:43:33.510Z,65.67
2018-02-24T20:46:01.331Z,65.49
2018-02-24T20:48:28.871Z,65.39
2018-02-24T20:50:56.852Z,66.06
2018-02-24T20:53:24.553Z,66.37
2018-02-24T20:55:52.636Z,65.96
2018-02-24T20:58:22.720Z,66.83
2018-02-24T21:00:51.139Z,67.14
2018-02-24T21:03:20.533Z,67.03
2018-02-24T21:05:53.010Z,66.67
2018-02-24T21:08:20.543Z,66.50
2018-02-24T21:10:48.491Z,66.12
2018-02-24T21:13:16.041Z,66.58
2018-02-24T21:15:43.575Z,66.17
2018-02-24T21:18:11.159Z,66.07
2018-02-24T21:20:39.499Z,66.46
2018-02-24T21:23:07.144Z,66.36
2018-02-24T21:25:34.698Z,67.93
2018-02-24T21:28:03.207Z,68.93
2018-02-24T21:30:30.742Z,70.07
2018-02-24T21:32:58.323Z,70.41
2018-02-24T21:35:25.927Z,71.19
2018-02-24T21:37:53.830Z,71.08
2018-02-24T21:40:21.444Z,70.74
2018-02-24T21:42:49.041Z,70.19
2018-02-24T21:45:17.513Z,69.37
2018-02-24T21:47:45.091Z,68.50
2018-02-24T21:50:12.676Z,67.92
2018-02-24T21:52:40.263Z,67.54
2018-02-24T21:55:07.808Z,67.06
2018-02-24T21:57:35.375Z,66.40
2018-02-24T22:00:03.051Z,66.22
2018-02-24T22:02:30.580Z,66.20
2018-02-24T22:04:58.965Z,66.04
2018-02-24T22:07:27.354Z,66.39
2018-02-24T22:09:55.844Z,66.02
2018-02-24T22:12:23.394Z,65.90
2018-02-24T22:14:50.989Z,65.74
2018-02-24T22:17:18.526Z,65.75
2018-02-24T22:19:46.175Z,66.10
2018-02-24T22:22:13.741Z,66.13
2018-02-24T22:24:41.339Z,65.87
2018-02-24T22:27:08.980Z,65.92
2018-02-24T22:29:36.584Z,66.16
2018-02-24T22:32:04.171Z,66.60
2018-02-24T22:34:31.715Z,66.90
2018-02-24T22:36:59.310Z,68.69
2018-02-24T22:39:26.908Z,68.37
2018-02-24T22:41:54.548Z,68.00
2018-02-24T22:44:22.099Z,67.80
2018-02-24T22:46:49.688Z,67.18
2018-02-24T22:49:17.248Z,67.03
2018-02-24T22:51:44.782Z,66.84
2018-02-24T22:54:12.377Z,66.60
2018-02-24T22:56:39.972Z,66.65
2018-02-24T22:59:07.564Z,67.97
2018-02-24T23:01:35.287Z,68.77
2018-02-24T23:04:02.819Z,68.50
2018-02-24T23:06:30.370Z,68.02
2018-02-24T23:08:58.336Z,67.55
2018-02-24T23:11:25.876Z,67.25
2018-02-24T23:13:53.470Z,67.13
2018-02-24T23:16:21.460Z,67.18
2018-02-24T23:18:49.044Z,67.46
2018-02-24T23:21:16.891Z,67.94
2018-02-24T23:23:44.533Z,67.89
2018-02-24T23:26:12.105Z,67.49
2018-02-24T23:28:39.639Z,68.58
2018-02-24T23:31:07.203Z,69.71
2018-02-24T23:33:34.782Z,70.35
2018-02-24T23:36:02.343Z,70.22
2018-02-24T23:38:29.880Z,69.22
2018-02-24T23:40:57.487Z,68.31
2018-02-24T23:43:25.020Z,68.66
2018-02-24T23:45:52.593Z,67.33
2018-02-24T23:48:20.164Z,67.18
2018-02-24T23:50:47.781Z,67.43
2018-02-24T23:53:15.336Z,67.30
2018-02-24T23:55:42.928Z,67.43
2018-02-24T23:58:10.524Z,67.37
